createdAt,value
2022-11-17T05:53:14.116Z,14.55
2022-11-17T05:58:27.290Z,20.00
2022-11-17T06:03:38.132Z,14.27
2022-11-17T06:08:42.593Z,19.05
2022-11-17T06:13:45.394Z,24.20
2022-11-17T06:19:00.986Z,28.15
2022-11-17T06:24:06.984Z,21.10
2022-11-17T06:29:12.511Z,21.10
2022-11-17T06:34:15.416Z,22.88
2022-11-17T06:39:18.243Z,17.38
2022-11-17T06:44:21.043Z,23.65
2022-11-17T06:49:23.893Z,51.92
2022-11-17T06:54:26.803Z,29.77
2022-11-17T06:59:30.012Z,21.10
2022-11-17T07:04:32.907Z,31.73
2022-11-17T07:09:36.628Z,21.33
2022-11-17T07:14:39.481Z,25.45
2022-11-17T07:19:42.359Z,26.23
2022-11-17T07:24:45.298Z,47.35
2022-11-17T07:29:48.127Z,33.05
2022-11-17T07:34:51.394Z,42.08
2022-11-17T07:39:54.326Z,36.80
2022-11-17T07:44:57.189Z,24.27
2022-11-17T07:50:00.788Z,19.88
2022-11-17T07:55:03.709Z,13.63
2022-11-17T08:00:07.230Z,12.52
2022-11-17T08:05:17.562Z,13.77
2022-11-17T08:10:20.622Z,13.82
2022-11-17T08:15:23.483Z,13.40
2022-11-17T08:20:27.921Z,21.63
2022-11-17T08:25:32.136Z,10.60
2022-11-17T08:30:36.181Z,10.73
2022-11-17T08:35:39.073Z,10.15
2022-11-17T08:40:42.877Z,8.25
2022-11-17T08:45:45.644Z,8.57
2022-11-17T08:50:48.925Z,9.82
2022-11-17T08:55:52.294Z,8.00
2022-11-17T09:00:57.601Z,7.50
2022-11-17T09:06:06.425Z,7.75
2022-11-17T09:11:11.505Z,6.90
2022-11-17T09:16:15.367Z,7.68
2022-11-17T09:21:18.205Z,8.15
2022-11-17T09:26:21.152Z,7.68
2022-11-17T09:31:24.084Z,7.18
2022-11-17T09:36:27.241Z,7.13
2022-11-17T09:41:41.226Z,7.68
2022-11-17T09:46:56.655Z,5.72
2022-11-17T09:52:16.150Z,10.02
2022-11-17T09:57:27.739Z,12.95
2022-11-17T10:02:30.931Z,9.00
2022-11-17T10:07:36.099Z,12.95
2022-11-17T10:12:47.908Z,17.38
2022-11-17T10:17:51.740Z,12.30
2022-11-17T10:22:56.049Z,10.70
2022-11-17T10:27:58.839Z,10.82
2022-11-17T10:33:05.752Z,10.70
2022-11-17T10:38:08.704Z,9.93
2022-11-17T10:43:14.484Z,10.82
2022-11-17T10:48:36.903Z,10.65
2022-11-17T10:53:46.807Z,11.43
2022-11-17T10:58:59.424Z,16.25
2022-11-17T11:04:04.078Z,8.20
2022-11-17T11:09:20.519Z,12.20
2022-11-17T11:14:33.611Z,11.10
2022-11-17T11:19:36.551Z,6.85
2022-11-17T11:24:50.308Z,8.13
2022-11-17T11:35:33.745Z,9.20
2022-11-17T11:40:40.519Z,9.68
2022-11-17T11:46:01.710Z,6.43
2022-11-17T11:51:11.947Z,6.72
2022-11-17T11:56:19.001Z,10.93
2022-11-17T12:01:23.472Z,9.48
2022-11-17T12:06:41.036Z,7.95
2022-11-17T12:12:03.380Z,9.13
2022-11-17T12:17:07.944Z,10.07
2022-11-17T12:22:23.136Z,7.70
2022-11-17T12:27:34.982Z,9.98
2022-11-17T12:32:46.883Z,13.93
2022-11-17T12:37:49.731Z,17.83
2022-11-17T12:43:17.160Z,23.55
2022-11-17T12:48:35.128Z,20.65
2022-11-17T12:54:04.713Z,23.45
2022-11-17T12:59:32.191Z,26.27
2022-11-17T13:04:49.287Z,26.60
2022-11-17T13:09:58.360Z,26.90
2022-11-17T13:15:03.197Z,27.00
2022-11-17T13:20:27.198Z,22.83
2022-11-17T13:25:30.093Z,30.13
2022-11-17T13:30:33.695Z,36.05
2022-11-17T13:35:36.980Z,33.33
